Time;durP1;ratioP1;P1;durP2;ratioP2;P2;SDS_P1;SDS_P2;PMS_P1;PMS_P2;Temp;Humidity;BMP_temperature;BMP_pressure;BME280_temperature;BME280_humidity;BME280_pressure;Samples;Min_cycle;Max_cycle;Signal;HPM_P1;HPM_P2
2022/03/26 00:02:08;;;;;;;12.13;8.10;;;;;;;30.44;72.39;101125.09;5015469;28;67117;-35
2022/03/26 00:04:39;;;;;;;22.13;16.23;;;;;;;30.44;72.75;101127.78;4990010;28;69922;-37
2022/03/26 00:07:10;;;;;;;18.80;12.90;;;;;;;30.30;73.08;101107.22;5010669;28;66269;-35
2022/03/26 00:09:41;;;;;;;20.48;11.95;;;;;;;30.50;71.16;101135.06;5016871;28;70245;-36
2022/03/26 00:12:12;;;;;;;12.70;10.05;;;;;;;30.57;71.58;101125.06;5013228;28;66205;-37
2022/03/26 00:14:43;;;;;;;16.30;10.40;;;;;;;30.68;70.58;101143.34;5017125;28;71197;-35
2022/03/26 00:17:13;;;;;;;9.68;8.60;;;;;;;30.73;70.05;101148.16;5017886;28;66173;-35
2022/03/26 00:19:44;;;;;;;8.63;7.70;;;;;;;30.70;69.58;101137.72;4995679;28;70087;-36
2022/03/26 00:22:15;;;;;;;10.15;7.72;;;;;;;30.82;69.96;101157.72;4997094;28;66255;-36
2022/03/26 00:24:46;;;;;;;11.45;7.28;;;;;;;30.85;69.35;101154.56;5019502;28;70050;-36
2022/03/26 00:27:17;;;;;;;9.25;7.35;;;;;;;30.82;68.98;101149.59;4997400;28;65997;-36
2022/03/26 00:29:48;;;;;;;11.57;6.43;;;;;;;30.90;69.25;101162.06;5008206;28;69839;-35
2022/03/26 00:32:19;;;;;;;8.18;6.90;;;;;;;30.91;68.90;101161.03;5006026;28;67338;-36
2022/03/26 00:34:50;;;;;;;13.43;6.15;;;;;;;31.01;68.52;101168.69;5015835;28;69634;-36
2022/03/26 00:37:21;;;;;;;12.05;5.50;;;;;;;31.15;65.81;101165.72;5014494;28;65895;-39
2022/03/26 00:39:51;;;;;;;6.85;5.25;;;;;;;31.25;64.65;101177.97;5019121;28;70436;-37
2022/03/26 00:42:23;;;;;;;5.95;5.55;;;;;;;31.31;64.18;101180.63;5019434;28;66470;-36
2022/03/26 00:44:53;;;;;;;5.05;4.50;;;;;;;31.36;63.92;101182.72;5019450;28;71426;-36
2022/03/26 00:47:24;;;;;;;7.57;4.50;;;;;;;31.45;63.37;101197.69;4997794;28;65829;-36
2022/03/26 00:49:55;;;;;;;;;;;;;;;31.14;64.63;101199.25;5017001;28;70180;-35
2022/03/26 00:52:26;;;;;;;5.30;4.80;;;;;;;31.44;62.95;101190.63;5019201;28;65616;-36
2022/03/26 00:54:57;;;;;;;4.90;4.50;;;;;;;31.54;63.19;101191.00;5018763;28;69235;-36
2022/03/26 00:57:27;;;;;;;5.38;4.65;;;;;;;31.63;62.91;101204.28;5019793;28;65371;-35
2022/03/26 00:59:58;;;;;;;5.53;4.78;;;;;;;31.66;62.18;101203.84;4999115;28;69035;-36
2022/03/26 01:02:29;;;;;;;4.60;4.20;;;;;;;31.72;62.75;101209.22;5019062;28;65703;-36
2022/03/26 01:05:00;;;;;;;4.80;4.50;;;;;;;31.75;62.30;101203.34;5016190;28;70113;-37
2022/03/26 01:07:31;;;;;;;5.13;4.60;;;;;;;31.48;62.17;101163.91;5019459;28;66105;-35
2022/03/26 01:10:02;;;;;;;4.50;4.10;;;;;;;31.79;61.79;101210.03;5001450;28;69868;-35
2022/03/26 01:12:33;;;;;;;6.13;4.50;;;;;;;31.75;61.81;101197.09;4999600;28;65727;-35
2022/03/26 01:15:04;;;;;;;5.57;4.72;;;;;;;31.65;61.64;101175.06;4999404;28;69667;-35
2022/03/26 01:17:35;;;;;;;5.27;4.27;;;;;;;31.87;61.34;101208.91;4998920;28;65945;-36
2022/03/26 01:20:08;;;;;;;3.77;3.57;;;;;;;31.80;60.95;101200.81;4979809;28;68986;-36
2022/03/26 01:22:38;;;;;;;6.47;4.30;;;;;;;31.94;60.79;101227.91;4995879;28;65592;-36
2022/03/26 01:25:10;;;;;;;5.75;4.10;;;;;;;31.86;60.97;101218.09;4996961;28;70746;-36
2022/03/26 01:27:41;;;;;;;4.30;3.90;;;;;;;31.90;60.48;101218.50;4963237;28;65831;-36
2022/03/26 01:30:13;;;;;;;4.40;4.10;;;;;;;31.75;60.66;101186.25;4998599;28;70390;-35
2022/03/26 01:32:45;;;;;;;4.10;3.70;;;;;;;32.05;60.61;101236.16;4978887;28;66370;-37
2022/03/26 01:35:16;;;;;;;4.18;3.88;;;;;;;32.02;60.60;101236.59;4991131;28;70662;-36
2022/03/26 01:37:47;;;;;;;4.18;3.88;;;;;;;32.10;60.16;101243.66;4998752;28;66389;-36
2022/03/26 01:40:17;;;;;;;4.43;3.70;;;;;;;32.08;60.00;101242.22;4999863;28;69922;-36
2022/03/26 01:42:48;;;;;;;4.28;3.97;;;;;;;32.08;59.61;101240.31;4998131;28;65266;-36
2022/03/26 01:45:18;;;;;;;4.75;4.35;;;;;;;32.14;59.45;101246.75;5000462;28;69074;-37
2022/03/26 01:47:49;;;;;;;4.50;4.10;;;;;;;32.11;59.25;101250.72;5020911;28;66045;-35
2022/03/26 01:50:20;;;;;;;4.25;3.90;;;;;;;32.22;59.35;101258.16;4997634;28;70972;-36
2022/03/26 01:52:50;;;;;;;3.78;3.55;;;;;;;32.23;59.26;101259.84;5015000;28;66242;-38
2022/03/26 01:55:23;;;;;;;5.93;4.82;;;;;;;32.01;59.54;101218.66;5020908;28;70719;-36
2022/03/26 01:57:55;;;;;;;5.25;4.75;;;;;;;32.31;59.74;101261.44;5022800;28;65764;-36
2022/03/26 02:00:25;;;;;;;5.60;5.20;;;;;;;32.30;60.30;101259.78;5021264;28;68810;-37
2022/03/26 02:02:57;;;;;;;6.82;5.30;;;;;;;32.38;60.30;101258.69;5021672;28;66906;-37
2022/03/26 02:05:29;;;;;;;5.43;5.03;;;;;;;32.39;60.54;101260.34;5001578;28;70258;-39
2022/03/26 02:08:03;;;;;;;5.18;4.78;;;;;;;32.43;60.38;101256.09;4999261;28;67224;-37
2022/03/26 02:10:35;;;;;;;5.85;5.22;;;;;;;32.45;60.88;101259.44;4999412;28;69770;-37
2022/03/26 02:13:06;;;;;;;5.90;5.32;;;;;;;32.42;60.96;101252.56;5018770;28;65249;-36
2022/03/26 02:15:37;;;;;;;5.13;4.67;;;;;;;32.47;60.93;101258.19;5004878;28;69597;-36
2022/03/26 02:18:09;;;;;;;5.53;5.03;;;;;;;32.54;60.95;101260.03;5022079;28;66652;-37
2022/03/26 02:20:40;;;;;;;5.35;4.95;;;;;;;32.57;60.78;101265.00;5019190;28;69177;-37
2022/03/26 02:23:11;;;;;;;5.03;4.53;;;;;;;32.59;60.88;101255.59;5020288;28;65443;-37
2022/03/26 02:25:41;;;;;;;4.78;4.47;;;;;;;32.63;61.00;101253.28;5002347;28;69850;-36
2022/03/26 02:28:12;;;;;;;4.85;4.25;;;;;;;32.67;60.84;101265.34;5016290;28;66018;-36
2022/03/26 02:30:42;;;;;;;4.63;4.32;;;;;;;32.69;60.64;101263.22;5016751;28;69680;-36
2022/03/26 02:33:13;;;;;;;6.05;4.50;;;;;;;32.65;60.81;101252.00;5021012;28;65863;-36
2022/03/26 02:35:43;;;;;;;4.82;4.45;;;;;;;32.74;60.85;101260.69;5016461;28;71252;-35
2022/03/26 02:38:14;;;;;;;4.13;3.83;;;;;;;32.74;60.49;101252.53;5020275;28;65718;-37
2022/03/26 02:40:47;;;;;;;4.20;3.80;;;;;;;32.81;60.65;101258.72;5020170;28;70559;-36
2022/03/26 02:43:18;;;;;;;3.83;3.53;;;;;;;32.79;60.38;101246.41;5011684;28;66219;-36
2022/03/26 02:45:49;;;;;;;4.38;4.00;;;;;;;32.84;60.19;101249.28;5020512;28;70104;-37
2022/03/26 02:48:20;;;;;;;3.60;3.30;;;;;;;32.66;60.32;101207.47;5020142;28;67823;-39
2022/03/26 02:50:51;;;;;;;4.57;3.78;;;;;;;32.88;60.12;101240.47;5019315;28;70446;-37
2022/03/26 02:53:23;;;;;;;3.60;3.30;;;;;;;32.88;60.09;101235.03;5020604;28;66431;-37
2022/03/26 02:55:54;;;;;;;3.45;3.15;;;;;;;32.93;60.29;101240.63;4999955;28;69109;-39
2022/03/26 02:58:25;;;;;;;3.63;3.33;;;;;;;32.97;59.87;101240.16;5001002;28;65017;-36
2022/03/26 03:00:57;;;;;;;4.45;2.78;;;;;;;32.88;59.59;101221.44;5018128;28;69850;-36
2022/03/26 03:03:28;;;;;;;3.65;2.90;;;;;;;32.98;59.63;101222.78;5018443;28;66469;-36
2022/03/26 03:05:59;;;;;;;3.45;3.05;;;;;;;33.01;59.58;101233.25;5021501;28;69847;-36
2022/03/26 03:08:30;;;;;;;6.28;3.15;;;;;;;33.03;59.52;101220.28;5021064;28;65925;-37
2022/03/26 03:11:00;;;;;;;3.50;3.20;;;;;;;33.05;59.35;101224.41;5019611;28;69623;-37
2022/03/26 03:13:31;;;;;;;3.45;3.17;;;;;;;33.06;59.52;101217.09;5021331;28;66297;-37
2022/03/26 03:16:01;;;;;;;5.80;4.45;;;;;;;33.11;59.50;101211.81;5020709;28;69834;-43
2022/03/26 03:18:32;;;;;;;3.65;3.30;;;;;;;33.16;59.09;101214.69;5020151;28;65459;-38
2022/03/26 03:21:07;;;;;;;4.60;3.50;;;;;;;33.16;58.98;101206.53;5019936;28;70165;-36
2022/03/26 03:23:38;;;;;;;3.42;3.13;;;;;;;33.07;58.90;101183.41;5021001;28;65632;-37
2022/03/26 03:26:08;;;;;;;3.42;3.20;;;;;;;33.20;58.36;101194.13;5033446;28;69410;-36
2022/03/26 03:28:39;;;;;;;4.45;3.08;;;;;;;33.22;58.43;101192.00;5019073;28;65616;-40
2022/03/26 03:31:10;;;;;;;4.43;2.72;;;;;;;33.24;58.38;101179.03;5019141;28;69847;-36
2022/03/26 03:33:41;;;;;;;3.28;2.70;;;;;;;33.22;58.40;101174.88;5020509;28;65270;-36
2022/03/26 03:36:11;;;;;;;2.83;2.50;;;;;;;33.28;58.29;101174.78;5017041;28;69569;-40
2022/03/26 03:38:42;;;;;;;5.22;2.67;;;;;;;33.32;58.15;101166.97;4985276;28;66311;-37
2022/03/26 03:41:13;;;;;;;4.07;2.35;;;;;;;33.32;58.12;101165.13;5019000;28;69199;-37
2022/03/26 03:43:43;;;;;;;2.78;2.45;;;;;;;33.35;57.88;101158.38;5020975;28;65224;-37
2022/03/26 03:46:14;;;;;;;2.78;2.20;;;;;;;33.30;57.84;101150.09;5000567;28;69543;-36
2022/03/26 03:48:45;;;;;;;2.45;2.25;;;;;;;33.36;57.43;101154.59;5019574;28;66139;-37
2022/03/26 03:51:15;;;;;;;2.78;2.20;;;;;;;33.33;57.57;101142.28;4998661;28;71593;-36
2022/03/26 03:53:46;;;;;;;2.42;2.03;;;;;;;33.41;57.66;101151.19;5016936;28;64847;-38
2022/03/26 03:56:17;;;;;;;3.05;2.45;;;;;;;33.43;57.45;101138.19;5018073;28;69613;-35
2022/03/26 03:58:48;;;;;;;2.67;2.47;;;;;;;33.47;57.43;101139.38;5007014;28;66683;-37
2022/03/26 04:01:18;;;;;;;6.43;2.63;;;;;;;33.50;57.57;101133.47;5016363;28;70311;-37
2022/03/26 04:03:49;;;;;;;2.95;2.60;;;;;;;33.50;57.55;101122.59;5019472;28;65088;-36
2022/03/26 04:06:20;;;;;;;3.25;2.67;;;;;;;33.53;57.31;101116.72;5020104;28;69649;-36
2022/03/26 04:08:50;;;;;;;3.20;2.30;;;;;;;33.57;57.14;101123.34;5018472;28;66391;-36
2022/03/26 04:11:22;;;;;;;3.83;3.00;;;;;;;33.49;57.18;101101.88;5010567;28;69095;-37
2022/03/26 04:13:53;;;;;;;2.70;2.50;;;;;;;33.63;57.07;101111.56;4999793;28;65916;-36
2022/03/26 04:16:24;;;;;;;2.63;2.33;;;;;;;33.59;57.19;101099.47;5018886;28;70244;-37
2022/03/26 04:18:55;;;;;;;2.47;2.28;;;;;;;33.66;57.03;101094.75;5012452;28;65876;-37
2022/03/26 04:21:26;;;;;;;2.50;2.10;;;;;;;33.69;56.64;101090.75;5017847;28;69576;-36
2022/03/26 04:23:56;;;;;;;4.43;2.40;;;;;;;33.64;56.51;101083.28;4998883;28;66245;-36
2022/03/26 04:26:27;;;;;;;3.90;2.42;;;;;;;33.65;56.34;101075.94;5019114;28;70609;-37
2022/03/26 04:28:58;;;;;;;3.28;2.45;;;;;;;33.67;56.55;101079.25;5017972;28;65634;-36
2022/03/26 04:31:29;;;;;;;4.37;2.40;;;;;;;33.75;56.05;101081.63;5020224;28;69454;-37
2022/03/26 04:34:01;;;;;;;5.17;2.17;;;;;;;33.76;55.98;101078.66;5019726;28;66439;-36
2022/03/26 04:36:32;;;;;;;2.53;1.90;;;;;;;33.79;55.94;101077.38;5000622;28;69248;-36
2022/03/26 04:39:03;;;;;;;3.25;2.35;;;;;;;33.76;55.72;101058.78;5020445;28;65806;-37
2022/03/26 04:41:34;;;;;;;2.20;2.00;;;;;;;33.79;55.77;101056.47;5019246;28;70986;-36
2022/03/26 04:44:05;;;;;;;7.22;2.28;;;;;;;33.74;55.75;101042.72;5018921;28;65322;-37
2022/03/26 04:46:38;;;;;;;3.45;2.00;;;;;;;33.79;55.34;101051.00;5013630;28;70859;-36
2022/03/26 04:49:09;;;;;;;2.00;1.80;;;;;;;33.85;55.21;101057.41;5000045;28;66141;-37
2022/03/26 04:51:40;;;;;;;3.80;1.70;;;;;;;33.86;55.45;101044.63;5000526;28;69973;-38
2022/03/26 04:54:11;;;;;;;3.17;1.80;;;;;;;33.88;55.00;101042.47;5001326;28;65079;-37
2022/03/26 04:56:43;;;;;;;2.15;1.80;;;;;;;33.92;54.81;101043.66;5000526;28;68603;-36
2022/03/26 04:59:14;;;;;;;2.63;2.05;;;;;;;33.92;55.06;101039.03;5001425;28;65861;-36
2022/03/26 05:01:44;;;;;;;4.57;2.35;;;;;;;33.95;54.73;101032.28;5018923;28;70075;-37
2022/03/26 05:04:15;;;;;;;4.20;2.15;;;;;;;33.89;54.48;101014.22;5018623;28;66777;-37
2022/03/26 05:06:46;;;;;;;2.97;2.78;;;;;;;33.57;55.61;101015.41;5010392;28;69647;-37
2022/03/26 05:09:17;;;;;;;2.92;2.72;;;;;;;33.28;56.76;100995.34;5003009;28;66379;-37
2022/03/26 05:11:47;;;;;;;3.47;2.33;;;;;;;33.33;57.32;101014.50;5008633;28;69113;-37
2022/03/26 05:14:18;;;;;;;5.75;2.50;;;;;;;33.25;57.68;101012.13;5004500;28;66243;-37
2022/03/26 05:16:49;;;;;;;2.65;2.33;;;;;;;33.19;58.31;101002.19;5012500;28;69587;-37
2022/03/26 05:19:20;;;;;;;2.45;2.25;;;;;;;33.11;58.60;100999.81;5002920;28;65307;-37
2022/03/26 05:21:51;;;;;;;3.23;2.43;;;;;;;33.08;58.68;100995.66;5007995;28;70698;-37
2022/03/26 05:24:21;;;;;;;2.38;2.17;;;;;;;33.03;58.77;100987.38;5004012;28;65654;-37
2022/03/26 05:26:52;;;;;;;3.17;2.85;;;;;;;33.03;58.83;100975.69;4998913;28;70792;-36
2022/03/26 05:29:22;;;;;;;6.97;2.50;;;;;;;33.07;59.00;100982.28;5001686;28;66300;-36
2022/03/26 05:31:53;;;;;;;2.47;2.28;;;;;;;33.01;59.08;100966.91;4998129;28;70648;-36
2022/03/26 05:34:24;;;;;;;2.60;2.40;;;;;;;32.90;59.22;100949.50;5001337;28;65429;-36
2022/03/26 05:36:55;;;;;;;4.50;2.25;;;;;;;33.01;59.31;100966.91;4998219;28;70299;-37
2022/03/26 05:39:25;;;;;;;2.55;2.35;;;;;;;32.97;59.48;100943.97;5002367;28;66327;-36
2022/03/26 05:41:57;;;;;;;3.05;2.42;;;;;;;33.01;59.42;100947.91;4998814;28;70283;-37
2022/03/26 05:44:28;;;;;;;2.87;2.07;;;;;;;33.05;59.36;100951.81;4999160;28;65495;-37
2022/03/26 05:47:00;;;;;;;2.60;2.40;;;;;;;33.01;59.68;100935.13;4998064;28;69473;-37
2022/03/26 05:49:31;;;;;;;2.72;2.47;;;;;;;33.07;59.46;100930.66;4999543;28;65841;-37
2022/03/26 05:52:02;;;;;;;2.80;2.50;;;;;;;33.04;59.41;100928.41;5002079;28;69532;-36
2022/03/26 05:54:33;;;;;;;4.03;2.40;;;;;;;33.06;59.81;100920.84;5001988;28;67791;-37
2022/03/26 05:57:03;;;;;;;5.07;2.80;;;;;;;33.08;59.87;100924.16;4999582;28;69531;-36
2022/03/26 05:59:34;;;;;;;2.47;1.95;;;;;;;33.07;59.82;100908.91;5003148;28;65145;-37
2022/03/26 06:02:05;;;;;;;3.90;2.30;;;;;;;33.08;59.59;100913.31;4995619;28;70569;-37
2022/03/26 06:04:37;;;;;;;5.10;2.15;;;;;;;33.16;59.44;100912.97;4993870;28;65874;-37
2022/03/26 06:07:07;;;;;;;2.92;2.67;;;;;;;33.07;59.57;100888.03;5000194;28;70202;-38
2022/03/26 06:09:38;;;;;;;5.22;2.55;;;;;;;33.20;59.92;100895.09;4980508;28;66204;-37
2022/03/26 06:12:09;;;;;;;6.07;2.67;;;;;;;33.21;59.76;100879.63;4999650;28;71228;-37
2022/03/26 06:14:40;;;;;;;16.40;3.03;;;;;;;32.97;59.63;100835.28;4983772;28;66116;-37
2022/03/26 06:17:11;;;;;;;7.28;2.80;;;;;;;33.27;59.85;100874.06;5000472;28;69252;-37
2022/03/26 06:19:44;;;;;;;4.28;3.00;;;;;;;33.30;59.50;100865.44;5002857;28;66765;-37
2022/03/26 06:22:15;;;;;;;8.23;3.05;;;;;;;33.29;59.66;100855.66;5000440;28;70432;-37
2022/03/26 06:24:46;;;;;;;14.63;3.20;;;;;;;33.33;59.47;100850.56;4983145;28;66510;-36
2022/03/26 06:27:16;;;;;;;4.40;3.15;;;;;;;33.30;59.09;100851.84;5014715;28;69560;-38
2022/03/26 06:29:47;;;;;;;5.90;3.03;;;;;;;33.33;59.54;100851.38;5018530;28;66775;-37
2022/03/26 06:32:18;;;;;;;4.95;2.95;;;;;;;33.32;60.02;100844.28;5002443;28;70044;-37
2022/03/26 06:34:49;;;;;;;10.68;2.97;;;;;;;33.30;59.92;100835.53;5013671;28;66155;-37
2022/03/26 06:37:21;;;;;;;10.25;3.33;;;;;;;33.36;60.23;100834.56;5013680;28;69618;-37
2022/03/26 06:39:52;;;;;;;4.90;2.70;;;;;;;33.33;59.76;100820.66;5021924;28;66652;-36
2022/03/26 06:42:22;;;;;;;6.53;3.08;;;;;;;33.31;59.79;100807.28;5021875;28;69317;-36
2022/03/26 06:44:59;;;;;;;3.80;2.53;;;;;;;33.23;59.79;100776.91;5021217;28;66315;-36
2022/03/26 06:47:31;;;;;;;6.93;2.70;;;;;;;33.47;59.71;100818.50;5021425;28;70403;-36
2022/03/26 06:50:01;;;;;;;;;;;;;;;33.25;60.43;100801.97;5021151;28;66803;-36
2022/03/26 06:52:32;;;;;;;3.10;2.83;;;;;;;33.52;59.57;100799.56;5014635;28;69615;-37
2022/03/26 06:55:08;;;;;;;3.53;2.78;;;;;;;33.59;59.65;100801.09;5018132;28;66221;-36
2022/03/26 06:57:41;;;;;;;6.07;3.05;;;;;;;33.58;59.82;100788.56;5020759;28;70400;-38
2022/03/26 07:00:13;;;;;;;6.43;2.45;;;;;;;33.65;59.72;100793.88;5015329;28;65799;-37
2022/03/26 07:02:44;;;;;;;3.17;2.45;;;;;;;33.61;59.48;100781.81;5016301;28;69044;-36
2022/03/26 07:05:15;;;;;;;3.30;2.30;;;;;;;33.64;59.68;100780.53;5013056;28;66316;-36
2022/03/26 07:07:46;;;;;;;4.18;2.80;;;;;;;33.68;59.30;100776.22;5017779;28;69616;-37
2022/03/26 07:10:17;;;;;;;3.80;3.07;;;;;;;33.73;59.02;100779.88;5002815;28;66240;-38
2022/03/26 07:12:47;;;;;;;3.55;2.78;;;;;;;33.74;59.28;100765.22;5018993;28;70133;-37
2022/03/26 07:15:18;;;;;;;2.50;2.30;;;;;;;33.81;59.01;100770.50;5002430;28;64310;-36
2022/03/26 07:17:49;;;;;;;3.58;2.65;;;;;;;33.85;59.12;100759.97;5020722;28;70396;-36
2022/03/26 07:20:20;;;;;;;5.07;2.67;;;;;;;33.88;58.95;100754.03;5011156;28;67058;-36
2022/03/26 07:22:50;;;;;;;3.58;2.55;;;;;;;33.91;59.21;100759.00;5020709;28;69192;-36
2022/03/26 07:25:21;;;;;;;2.88;2.60;;;;;;;33.91;58.92;100748.13;5012869;28;66552;-37
2022/03/26 07:27:52;;;;;;;3.00;2.75;;;;;;;33.99;58.81;100750.41;4963190;28;70573;-36
2022/03/26 07:30:23;;;;;;;2.95;2.65;;;;;;;34.03;58.22;100748.88;4993494;28;65352;-37
2022/03/26 07:32:54;;;;;;;3.97;3.00;;;;;;;34.04;58.43;100742.34;4996290;28;71430;-36
2022/03/26 07:35:25;;;;;;;5.25;2.30;;;;;;;34.25;58.21;100744.38;5004619;28;66384;-36
2022/03/26 07:37:55;;;;;;;6.95;2.30;;;;;;;34.45;57.69;100732.19;5019427;28;69835;-37
2022/03/26 07:40:26;;;;;;;3.55;2.78;;;;;;;34.60;57.42;100724.28;5020004;28;65606;-36
2022/03/26 07:42:57;;;;;;;3.08;2.50;;;;;;;34.69;56.80;100716.50;4987149;28;70769;-37
2022/03/26 07:45:28;;;;;;;3.45;2.15;;;;;;;34.84;57.08;100730.34;5005344;28;66560;-37
2022/03/26 07:47:59;;;;;;;2.78;2.47;;;;;;;34.89;56.04;100721.41;4963825;28;69208;-38
2022/03/26 07:50:31;;;;;;;2.85;2.55;;;;;;;34.96;56.15;100711.16;5001150;28;66161;-42
2022/03/26 07:53:02;;;;;;;3.38;2.70;;;;;;;35.04;55.68;100707.97;4996396;28;70062;-37
2022/03/26 07:55:32;;;;;;;2.83;2.60;;;;;;;35.10;55.57;100711.63;4997894;28;64698;-39
2022/03/26 07:58:03;;;;;;;2.40;2.20;;;;;;;35.11;55.57;100705.94;4996443;28;70101;-37
2022/03/26 08:00:34;;;;;;;3.97;2.33;;;;;;;35.12;55.23;100688.50;4979214;28;66266;-37
2022/03/26 08:03:10;;;;;;;2.83;2.58;;;;;;;35.24;54.87;100701.16;4980212;28;69415;-37
2022/03/26 08:05:41;;;;;;;4.05;3.58;;;;;;;35.23;55.11;100694.06;4997515;28;65141;-37
2022/03/26 08:08:12;;;;;;;3.35;3.03;;;;;;;35.34;54.76;100684.94;4997009;28;69947;-36
2022/03/26 08:10:43;;;;;;;4.05;3.65;;;;;;;35.42;54.98;100684.47;4994222;28;65629;-36
2022/03/26 08:13:13;;;;;;;4.30;3.90;;;;;;;35.46;54.79;100682.88;4992522;28;70239;-37
2022/03/26 08:15:44;;;;;;;4.77;4.23;;;;;;;35.55;54.58;100677.78;4994046;28;67792;-36
2022/03/26 08:18:16;;;;;;;6.05;4.55;;;;;;;35.60;54.05;100677.03;4986670;28;69779;-37
2022/03/26 08:20:47;;;;;;;5.70;5.30;;;;;;;35.66;53.90;100684.19;4995660;28;65613;-35
2022/03/26 08:23:18;;;;;;;6.47;5.80;;;;;;;35.71;53.74;100673.34;4998756;28;70610;-37
2022/03/26 08:28:38;;;;;;;9.35;6.30;;;;;;;35.83;54.61;100676.75;5018306;28;70034;-38
2022/03/26 08:31:10;;;;;;;7.05;6.38;;;;;;;35.88;54.35;100674.03;5001303;28;65700;-36
2022/03/26 08:33:41;;;;;;;9.93;6.38;;;;;;;35.93;54.08;100668.63;5018498;28;69674;-37
2022/03/26 08:36:13;;;;;;;7.60;6.93;;;;;;;35.96;53.67;100664.53;5018864;28;66266;-37
2022/03/26 08:38:46;;;;;;;7.20;6.50;;;;;;;36.01;54.79;100667.31;5014415;28;70028;-36
2022/03/26 08:41:20;;;;;;;13.77;6.68;;;;;;;35.68;54.41;100602.91;5020126;28;65442;-36
2022/03/26 08:43:51;;;;;;;7.35;6.65;;;;;;;36.08;54.47;100664.38;4997485;28;70002;-36
2022/03/26 08:46:22;;;;;;;10.23;6.90;;;;;;;36.08;54.42;100667.13;5011359;28;65936;-36
2022/03/26 08:48:53;;;;;;;7.28;6.57;;;;;;;36.08;54.34;100661.66;4998604;28;70631;-38
2022/03/26 08:51:24;;;;;;;12.35;6.15;;;;;;;36.11;54.34;100655.66;5004125;28;66297;-36
2022/03/26 08:53:55;;;;;;;10.52;6.95;;;;;;;36.12;54.38;100660.06;5012660;28;70071;-36
2022/03/26 08:56:26;;;;;;;10.30;6.95;;;;;;;36.15;53.84;100662.28;5014964;28;66686;-35
2022/03/26 08:58:57;;;;;;;6.95;6.28;;;;;;;36.12;54.28;100646.41;5002016;28;70018;-36
2022/03/26 09:01:29;;;;;;;9.00;6.72;;;;;;;36.12;54.54;100646.41;5016573;28;65189;-36
2022/03/26 09:03:59;;;;;;;;;;;;;;;35.92;54.92;100653.34;5022181;28;70518;-36
2022/03/26 09:06:30;;;;;;;10.82;7.07;;;;;;;35.82;55.85;100646.97;5015426;28;65442;-36
2022/03/26 09:09:02;;;;;;;10.63;6.90;;;;;;;35.69;56.76;100651.78;5020088;28;69109;-37
2022/03/26 09:11:34;;;;;;;19.92;8.73;;;;;;;35.63;55.65;100651.97;5020329;28;66118;-37
2022/03/26 09:14:06;;;;;;;12.90;9.50;;;;;;;35.57;55.36;100657.38;5000802;28;69834;-37
2022/03/26 09:16:36;;;;;;;15.27;10.27;;;;;;;35.50;55.35;100651.28;5015633;28;65774;-36
2022/03/26 09:19:07;;;;;;;21.77;10.43;;;;;;;35.49;55.72;100646.06;5017135;28;71242;-37
2022/03/26 09:21:38;;;;;;;10.05;9.00;;;;;;;35.44;57.36;100641.41;5022159;28;65430;-37
2022/03/26 09:24:09;;;;;;;14.00;8.73;;;;;;;35.38;58.64;100642.41;5017132;28;70040;-37
2022/03/26 09:26:40;;;;;;;12.02;9.25;;;;;;;35.18;58.79;100609.50;4999842;28;65941;-37
2022/03/26 09:29:11;;;;;;;11.07;9.27;;;;;;;35.31;59.61;100625.44;4993313;28;68837;-36
2022/03/26 09:31:41;;;;;;;9.38;8.50;;;;;;;35.33;60.12;100645.13;5011560;28;67175;-36
2022/03/26 09:34:13;;;;;;;13.13;8.98;;;;;;;35.31;60.09;100641.81;5008050;28;70441;-37
2022/03/26 09:36:45;;;;;;;12.57;9.02;;;;;;;35.32;59.90;100648.91;5014756;28;65975;-37
2022/03/26 09:39:17;;;;;;;13.48;9.15;;;;;;;35.22;60.37;100646.09;4994738;28;69899;-37
2022/03/26 09:41:48;;;;;;;10.45;8.13;;;;;;;35.24;60.15;100646.63;5013005;28;65771;-37
2022/03/26 09:44:20;;;;;;;9.48;8.65;;;;;;;35.22;60.21;100648.81;5011018;28;70343;-38
2022/03/26 09:46:51;;;;;;;9.65;8.80;;;;;;;35.20;61.02;100651.78;5009668;28;65633;-37
2022/03/26 09:49:22;;;;;;;10.47;9.43;;;;;;;35.21;61.01;100658.06;5018163;28;69579;-37
2022/03/26 09:51:56;;;;;;;10.33;9.23;;;;;;;35.21;61.28;100655.31;4984885;28;65708;-37
2022/03/26 09:54:27;;;;;;;11.60;10.35;;;;;;;35.20;61.85;100656.41;5004327;28;69830;-37
2022/03/26 09:56:59;;;;;;;22.40;12.88;;;;;;;35.23;61.67;100664.91;4988025;28;66099;-36
2022/03/26 09:59:30;;;;;;;23.73;12.88;;;;;;;35.11;61.92;100648.69;5005410;28;71960;-36
2022/03/26 10:02:02;;;;;;;18.45;10.68;;;;;;;35.38;60.64;100664.22;5004592;28;68220;-37
2022/03/26 10:04:38;;;;;;;12.57;8.32;;;;;;;35.32;55.69;100673.44;5013979;28;70098;-37
2022/03/26 10:07:10;;;;;;;8.25;6.00;;;;;;;35.20;53.47;100661.88;4998234;28;66270;-37
2022/03/26 10:09:48;;;;;;;5.68;4.97;;;;;;;35.16;52.29;100660.72;4994725;28;68952;-38
2022/03/26 10:12:27;;;;;;;15.85;5.30;;;;;;;35.21;51.79;100674.41;4987754;28;66170;-37
2022/03/26 10:15:00;;;;;;;9.43;5.05;;;;;;;34.84;51.28;100631.41;5013211;28;69352;-37
2022/03/26 10:17:36;;;;;;;7.18;4.50;;;;;;;34.81;50.71;100637.38;5008775;28;65723;-36
2022/03/26 10:20:13;;;;;;;8.43;5.05;;;;;;;35.14;51.11;100691.78;5012833;28;70353;-37
2022/03/26 10:22:50;;;;;;;6.63;4.88;;;;;;;34.50;51.13;100587.09;5002820;28;66540;-38
2022/03/26 10:25:23;;;;;;;11.43;4.28;;;;;;;35.11;50.51;100692.31;4989484;28;68672;-37
2022/03/26 10:27:56;;;;;;;5.15;3.60;;;;;;;35.09;50.59;100689.00;4999424;28;65515;-37
2022/03/26 10:33:27;;;;;;;9.23;3.42;;;;;;;34.99;50.18;100688.81;5022977;28;66554;-37
2022/03/26 10:36:03;;;;;;;9.00;4.32;;;;;;;35.00;50.17;100690.50;5016817;28;69378;-37
2022/03/26 10:38:39;;;;;;;4.93;4.45;;;;;;;34.98;50.65;100702.72;4999527;28;66869;-37
2022/03/26 10:41:10;;;;;;;6.72;4.88;;;;;;;34.84;50.69;100692.19;5013269;28;70629;-37
2022/03/26 10:43:41;;;;;;;8.73;4.25;;;;;;;34.86;50.41;100689.22;5000836;28;67129;-36
2022/03/26 10:46:12;;;;;;;4.43;3.97;;;;;;;35.15;50.10;100706.25;4983213;28;69319;-38
2022/03/26 10:48:43;;;;;;;15.00;3.70;;;;;;;35.31;50.02;100699.09;5014270;28;66438;-38
2022/03/26 10:51:17;;;;;;;3.63;3.33;;;;;;;35.45;49.08;100702.25;5001519;28;70531;-37
2022/03/26 10:53:49;;;;;;;6.53;3.33;;;;;;;35.55;49.81;100703.16;5017289;28;66205;-38
2022/03/26 10:56:20;;;;;;;8.45;4.45;;;;;;;35.60;49.02;100699.69;5004805;28;69968;-37
2022/03/26 10:58:51;;;;;;;12.07;4.80;;;;;;;35.64;49.40;100702.75;5014514;28;66649;-37
2022/03/26 11:01:22;;;;;;;8.65;4.10;;;;;;;35.64;49.39;100711.75;5016129;28;69893;-38
2022/03/26 11:03:53;;;;;;;6.25;3.78;;;;;;;35.62;49.58;100704.91;5015468;28;64693;-38
2022/03/26 11:06:26;;;;;;;9.23;4.40;;;;;;;35.40;49.17;100670.25;5016152;28;70122;-41
2022/03/26 11:09:00;;;;;;;4.60;4.18;;;;;;;35.69;49.41;100710.97;5009988;28;66336;-37
2022/03/26 11:11:30;;;;;;;11.93;3.20;;;;;;;35.73;50.21;100721.13;5017550;28;70625;-37
2022/03/26 11:14:10;;;;;;;;;;;;;;;35.46;50.08;100731.97;4998546;28;65710;-38
2022/03/26 11:17:01;;;;;;;11.77;3.53;;;;;;;35.73;49.79;100736.66;5013850;28;70044;-39
2022/03/26 11:19:49;;;;;;;4.03;3.42;;;;;;;35.73;49.96;100736.66;4993416;28;65606;-37
2022/03/26 11:22:29;;;;;;;6.65;3.72;;;;;;;35.72;49.97;100729.56;5006211;28;69304;-37
2022/03/26 11:25:07;;;;;;;6.95;3.22;;;;;;;35.73;50.19;100731.22;5012983;28;65407;-36
2022/03/26 11:27:56;;;;;;;5.60;3.58;;;;;;;35.67;49.92;100737.69;5016160;28;69651;-37
2022/03/26 11:30:38;;;;;;;4.90;4.50;;;;;;;35.70;49.65;100742.63;5018246;28;65761;-37
2022/03/26 11:33:13;;;;;;;6.35;4.95;;;;;;;35.58;49.80;100743.63;5019757;28;70113;-37
2022/03/26 11:35:56;;;;;;;10.00;8.35;;;;;;;35.60;49.44;100745.25;5019809;28;66329;-38
2022/03/26 11:38:28;;;;;;;10.48;8.45;;;;;;;35.33;48.83;100705.13;5016643;28;69421;-37
2022/03/26 11:41:08;;;;;;;8.02;6.93;;;;;;;35.41;49.34;100747.44;5021376;28;65961;-36
2022/03/26 11:43:45;;;;;;;12.63;7.53;;;;;;;35.12;50.62;100748.47;5018459;28;70505;-36
2022/03/26 11:52:26;;;;;;;;;;;;;;;34.32;52.72;100751.56;5020689;28;66506;-36
2022/03/26 11:55:24;;;;;;;4.88;4.40;;;;;;;34.58;52.42;100748.22;5010980;28;70175;-36
2022/03/26 11:58:24;;;;;;;8.73;3.60;;;;;;;34.36;53.42;100758.19;5021410;28;66294;-35